sensor_id;sensor_type;location;lat;lon;timestamp;pressure;altitude;pressure_sealevel;temperature;humidity
25638;BME280;13496;51.040;13.680;2023-06-14T00:01:10;99742.72;;;25.22;35.44
25638;BME280;13496;51.040;13.680;2023-06-14T00:06:14;99732.91;;;25.23;35.46
25638;BME280;13496;51.040;13.680;2023-06-14T00:11:17;99745.59;;;25.21;35.51
25638;BME280;13496;51.040;13.680;2023-06-14T00:16:18;99736.81;;;25.20;35.76
25638;BME280;13496;51.040;13.680;2023-06-14T00:21:20;99731.97;;;25.17;35.95
25638;BME280;13496;51.040;13.680;2023-06-14T00:26:22;99727.94;;;25.15;35.64
25638;BME280;13496;51.040;13.680;2023-06-14T00:31:24;99731.63;;;25.14;35.64
25638;BME280;13496;51.040;13.680;2023-06-14T00:36:26;99730.00;;;25.13;36.22
25638;BME280;13496;51.040;13.680;2023-06-14T00:41:28;99733.09;;;25.09;36.20
25638;BME280;13496;51.040;13.680;2023-06-14T00:46:30;99731.13;;;25.05;36.14
25638;BME280;13496;51.040;13.680;2023-06-14T00:51:31;99733.19;;;25.03;36.18
25638;BME280;13496;51.040;13.680;2023-06-14T00:56:36;99736.91;;;25.02;36.16
25638;BME280;13496;51.040;13.680;2023-06-14T01:01:38;99737.59;;;24.97;36.45
25638;BME280;13496;51.040;13.680;2023-06-14T01:07:04;99736.81;;;24.97;36.28
25638;BME280;13496;51.040;13.680;2023-06-14T01:12:20;99730.91;;;24.95;36.36
25638;BME280;13496;51.040;13.680;2023-06-14T01:17:22;99727.69;;;24.93;36.56
25638;BME280;13496;51.040;13.680;2023-06-14T01:22:29;99727.91;;;24.91;36.56
25638;BME280;13496;51.040;13.680;2023-06-14T01:27:31;99722.47;;;24.86;36.77
25638;BME280;13496;51.040;13.680;2023-06-14T01:32:34;99717.97;;;24.86;36.46
25638;BME280;13496;51.040;13.680;2023-06-14T01:37:37;99719.25;;;24.84;36.70
25638;BME280;13496;51.040;13.680;2023-06-14T01:42:39;99714.75;;;24.84;36.55
25638;BME280;13496;51.040;13.680;2023-06-14T01:47:41;99709.47;;;24.84;36.50
25638;BME280;13496;51.040;13.680;2023-06-14T01:52:44;99709.09;;;24.81;36.77
25638;BME280;13496;51.040;13.680;2023-06-14T01:57:46;99709.56;;;24.78;36.63
25638;BME280;13496;51.040;13.680;2023-06-14T02:02:47;99705.84;;;24.79;36.62
25638;BME280;13496;51.040;13.680;2023-06-14T02:07:50;99711.63;;;24.76;36.60
25638;BME280;13496;51.040;13.680;2023-06-14T02:12:53;99713.47;;;24.75;36.57
25638;BME280;13496;51.040;13.680;2023-06-14T02:17:56;99725.34;;;24.73;36.75
25638;BME280;13496;51.040;13.680;2023-06-14T02:22:58;99725.59;;;24.71;36.72
25638;BME280;13496;51.040;13.680;2023-06-14T02:27:59;99726.84;;;24.69;36.51
25638;BME280;13496;51.040;13.680;2023-06-14T02:33:01;99733.78;;;24.70;36.90
25638;BME280;13496;51.040;13.680;2023-06-14T02:38:03;99742.19;;;24.67;36.97
25638;BME280;13496;51.040;13.680;2023-06-14T02:43:05;99740.00;;;24.63;36.80
25638;BME280;13496;51.040;13.680;2023-06-14T02:48:07;99735.50;;;24.64;36.89
25638;BME280;13496;51.040;13.680;2023-06-14T02:53:09;99738.38;;;24.62;36.92
25638;BME280;13496;51.040;13.680;2023-06-14T02:58:12;99742.53;;;24.58;36.91
25638;BME280;13496;51.040;13.680;2023-06-14T03:03:14;99740.09;;;24.57;37.03
25638;BME280;13496;51.040;13.680;2023-06-14T03:08:23;99738.13;;;24.52;37.24
25638;BME280;13496;51.040;13.680;2023-06-14T03:13:29;99737.69;;;24.55;36.88
25638;BME280;13496;51.040;13.680;2023-06-14T03:18:34;99739.19;;;24.51;36.99
25638;BME280;13496;51.040;13.680;2023-06-14T03:23:38;99748.75;;;24.52;36.97
25638;BME280;13496;51.040;13.680;2023-06-14T03:28:41;99748.75;;;24.52;36.90
25638;BME280;13496;51.040;13.680;2023-06-14T03:33:43;99759.56;;;24.51;36.95
25638;BME280;13496;51.040;13.680;2023-06-14T03:38:45;99759.00;;;24.49;37.09
25638;BME280;13496;51.040;13.680;2023-06-14T03:43:49;99771.66;;;24.47;37.11
25638;BME280;13496;51.040;13.680;2023-06-14T03:48:51;99777.22;;;24.45;37.12
25638;BME280;13496;51.040;13.680;2023-06-14T03:53:53;99788.63;;;24.46;37.15
25638;BME280;13496;51.040;13.680;2023-06-14T03:58:57;99792.06;;;24.46;37.16
25638;BME280;13496;51.040;13.680;2023-06-14T04:04:01;99795.19;;;24.43;37.18
25638;BME280;13496;51.040;13.680;2023-06-14T04:09:03;99801.53;;;24.42;37.19
25638;BME280;13496;51.040;13.680;2023-06-14T04:14:05;99801.53;;;24.42;36.93
25638;BME280;13496;51.040;13.680;2023-06-14T04:19:07;99810.66;;;24.46;37.09
25638;BME280;13496;51.040;13.680;2023-06-14T04:24:09;99812.50;;;24.46;37.33
25638;BME280;13496;51.040;13.680;2023-06-14T04:29:15;99808.59;;;24.48;37.44
25638;BME280;13496;51.040;13.680;2023-06-14T04:34:20;99805.34;;;24.46;37.58
25638;BME280;13496;51.040;13.680;2023-06-14T04:39:28;99796.22;;;24.42;37.58
25638;BME280;13496;51.040;13.680;2023-06-14T04:44:30;99805.56;;;24.45;37.13
25638;BME280;13496;51.040;13.680;2023-06-14T04:49:34;99817.00;;;24.45;37.52
25638;BME280;13496;51.040;13.680;2023-06-14T04:54:36;99833.72;;;24.46;37.17
25638;BME280;13496;51.040;13.680;2023-06-14T04:59:44;99832.31;;;24.43;37.16
25638;BME280;13496;51.040;13.680;2023-06-14T05:04:46;99828.50;;;24.39;37.47
25638;BME280;13496;51.040;13.680;2023-06-14T05:09:49;99832.78;;;24.40;37.46
25638;BME280;13496;51.040;13.680;2023-06-14T05:14:51;99831.75;;;24.41;37.48
25638;BME280;13496;51.040;13.680;2023-06-14T05:19:55;99837.84;;;24.42;37.23
25638;BME280;13496;51.040;13.680;2023-06-14T05:24:57;99848.03;;;24.45;37.15
25638;BME280;13496;51.040;13.680;2023-06-14T05:29:59;99843.53;;;24.45;37.15
25638;BME280;13496;51.040;13.680;2023-06-14T05:35:00;99846.16;;;24.45;37.04
25638;BME280;13496;51.040;13.680;2023-06-14T05:40:03;99840.75;;;24.40;36.97
25638;BME280;13496;51.040;13.680;2023-06-14T05:45:08;99845.56;;;24.43;37.27
25638;BME280;13496;51.040;13.680;2023-06-14T05:50:10;99846.97;;;24.46;37.60
25638;BME280;13496;51.040;13.680;2023-06-14T05:55:12;99860.69;;;24.43;37.02
25638;BME280;13496;51.040;13.680;2023-06-14T06:00:14;99847.22;;;24.44;37.17
25638;BME280;13496;51.040;13.680;2023-06-14T06:05:17;99848.03;;;24.45;37.03
25638;BME280;13496;51.040;13.680;2023-06-14T06:10:19;99850.88;;;24.43;37.12
25638;BME280;13496;51.040;13.680;2023-06-14T06:15:20;99852.97;;;24.41;37.49
25638;BME280;13496;51.040;13.680;2023-06-14T06:20:23;99869.44;;;24.43;37.52
25638;BME280;13496;51.040;13.680;2023-06-14T06:25:34;99883.53;;;24.44;36.94
25638;BME280;13496;51.040;13.680;2023-06-14T06:30:36;99889.06;;;24.42;37.16
25638;BME280;13496;51.040;13.680;2023-06-14T06:35:38;99879.41;;;24.48;37.31
25638;BME280;13496;51.040;13.680;2023-06-14T06:40:39;99892.06;;;24.46;37.20
25638;BME280;13496;51.040;13.680;2023-06-14T06:45:41;99886.53;;;24.47;36.91
25638;BME280;13496;51.040;13.680;2023-06-14T06:50:43;99891.25;;;24.45;37.49
25638;BME280;13496;51.040;13.680;2023-06-14T06:55:44;99885.72;;;24.47;37.09
25638;BME280;13496;51.040;13.680;2023-06-14T07:00:46;99887.56;;;24.46;37.14
25638;BME280;13496;51.040;13.680;2023-06-14T07:05:48;99880.78;;;24.50;37.09
25638;BME280;13496;51.040;13.680;2023-06-14T07:10:49;99882.41;;;24.51;37.31
25638;BME280;13496;51.040;13.680;2023-06-14T07:15:54;99878.94;;;24.51;36.92
25638;BME280;13496;51.040;13.680;2023-06-14T07:20:56;99885.88;;;24.52;37.17
25638;BME280;13496;51.040;13.680;2023-06-14T07:25:58;99889.91;;;24.54;37.22
25638;BME280;13496;51.040;13.680;2023-06-14T07:31:00;99882.78;;;24.55;37.44
25638;BME280;13496;51.040;13.680;2023-06-14T07:36:02;99888.53;;;24.52;37.19
25638;BME280;13496;51.040;13.680;2023-06-14T07:41:04;99883.78;;;24.54;37.52
25638;BME280;13496;51.040;13.680;2023-06-14T07:46:06;99883.22;;;24.52;36.92
25638;BME280;13496;51.040;13.680;2023-06-14T07:51:08;99897.28;;;24.52;37.07
25638;BME280;13496;51.040;13.680;2023-06-14T07:56:10;99888.91;;;24.55;37.24
25638;BME280;13496;51.040;13.680;2023-06-14T08:01:12;99881.94;;;24.54;37.22
25638;BME280;13496;51.040;13.680;2023-06-14T08:06:13;99889.69;;;24.56;37.10
25638;BME280;13496;51.040;13.680;2023-06-14T08:11:15;99886.25;;;24.55;36.60
25638;BME280;13496;51.040;13.680;2023-06-14T08:16:17;99893.53;;;24.60;36.88
25638;BME280;13496;51.040;13.680;2023-06-14T08:21:18;99889.47;;;24.57;36.53
25638;BME280;13496;51.040;13.680;2023-06-14T08:26:21;99894.56;;;24.59;37.07
25638;BME280;13496;51.040;13.680;2023-06-14T08:31:23;99895.06;;;24.68;36.95
25638;BME280;13496;51.040;13.680;2023-06-14T08:36:26;99893.56;;;24.72;37.00
25638;BME280;13496;51.040;13.680;2023-06-14T08:41:28;99883.31;;;24.75;36.23
25638;BME280;13496;51.040;13.680;2023-06-14T08:46:32;99883.22;;;24.82;35.86
25638;BME280;13496;51.040;13.680;2023-06-14T08:51:35;99879.03;;;24.74;36.56
25638;BME280;13496;51.040;13.680;2023-06-14T08:56:38;99882.16;;;24.71;36.51
25638;BME280;13496;51.040;13.680;2023-06-14T09:01:42;99885.38;;;24.73;36.76
25638;BME280;13496;51.040;13.680;2023-06-14T09:06:45;99891.16;;;24.70;36.38
25638;BME280;13496;51.040;13.680;2023-06-14T09:11:46;99897.81;;;24.73;36.21
25638;BME280;13496;51.040;13.680;2023-06-14T09:16:52;99903.94;;;24.73;36.53
25638;BME280;13496;51.040;13.680;2023-06-14T09:21:54;99900.28;;;24.74;36.49
25638;BME280;13496;51.040;13.680;2023-06-14T09:26:57;99901.34;;;24.85;36.41
25638;BME280;13496;51.040;13.680;2023-06-14T09:31:59;99898.63;;;25.03;36.19
25638;BME280;13496;51.040;13.680;2023-06-14T09:37:01;99894.06;;;25.10;35.99
25638;BME280;13496;51.040;13.680;2023-06-14T09:42:16;99897.22;;;25.31;35.79
25638;BME280;13496;51.040;13.680;2023-06-14T09:47:19;99887.75;;;25.35;34.69
25638;BME280;13496;51.040;13.680;2023-06-14T09:52:22;99881.88;;;25.45;34.50
25638;BME280;13496;51.040;13.680;2023-06-14T09:57:29;99890.16;;;25.25;34.65
25638;BME280;13496;51.040;13.680;2023-06-14T10:02:36;99880.91;;;25.27;35.33
25638;BME280;13496;51.040;13.680;2023-06-14T10:07:41;99873.06;;;25.21;35.66
25638;BME280;13496;51.040;13.680;2023-06-14T10:12:44;99880.38;;;25.25;35.67
25638;BME280;13496;51.040;13.680;2023-06-14T10:18:27;99874.81;;;25.39;35.40
25638;BME280;13496;51.040;13.680;2023-06-14T10:23:33;99878.06;;;25.41;35.24
25638;BME280;13496;51.040;13.680;2023-06-14T10:28:38;99883.25;;;25.47;35.28
25638;BME280;13496;51.040;13.680;2023-06-14T10:34:06;99878.88;;;25.41;35.52
25638;BME280;13496;51.040;13.680;2023-06-14T10:39:10;99886.50;;;25.49;35.40
25638;BME280;13496;51.040;13.680;2023-06-14T10:49:16;99881.06;;;25.56;35.52
25638;BME280;13496;51.040;13.680;2023-06-14T10:54:21;99874.00;;;25.50;35.40
25638;BME280;13496;51.040;13.680;2023-06-14T10:59:23;99881.88;;;25.33;35.84
25638;BME280;13496;51.040;13.680;2023-06-14T11:04:46;99868.81;;;25.43;35.80
25638;BME280;13496;51.040;13.680;2023-06-14T11:10:17;99874.59;;;25.52;35.75
25638;BME280;13496;51.040;13.680;2023-06-14T11:15:30;99853.47;;;25.45;35.79
25638;BME280;13496;51.040;13.680;2023-06-14T11:20:34;99855.53;;;25.43;35.79
25638;BME280;13496;51.040;13.680;2023-06-14T11:25:36;99856.47;;;25.37;35.97
25638;BME280;13496;51.040;13.680;2023-06-14T11:30:38;99861.44;;;25.33;35.99
25638;BME280;13496;51.040;13.680;2023-06-14T11:35:41;99864.09;;;25.45;35.85
25638;BME280;13496;51.040;13.680;2023-06-14T11:40:43;99858.28;;;25.95;35.36
25638;BME280;13496;51.040;13.680;2023-06-14T11:45:48;99857.50;;;25.71;35.38
25638;BME280;13496;51.040;13.680;2023-06-14T11:50:50;99857.38;;;25.54;35.82
25638;BME280;13496;51.040;13.680;2023-06-14T11:55:53;99861.31;;;25.52;35.89
25638;BME280;13496;51.040;13.680;2023-06-14T12:00:54;99864.19;;;25.50;35.87
25638;BME280;13496;51.040;13.680;2023-06-14T12:06:07;99855.19;;;25.51;35.86
25638;BME280;13496;51.040;13.680;2023-06-14T12:11:13;99848.59;;;25.66;35.69
25638;BME280;13496;51.040;13.680;2023-06-14T12:16:15;99857.94;;;25.68;35.63
25638;BME280;13496;51.040;13.680;2023-06-14T12:21:17;99862.47;;;25.68;35.90
25638;BME280;13496;51.040;13.680;2023-06-14T12:26:19;99854.59;;;25.73;35.43
25638;BME280;13496;51.040;13.680;2023-06-14T12:31:21;99854.13;;;26.51;34.73
25638;BME280;13496;51.040;13.680;2023-06-14T12:36:23;99856.09;;;26.44;34.68
25638;BME280;13496;51.040;13.680;2023-06-14T12:41:25;99846.50;;;25.91;35.18
25638;BME280;13496;51.040;13.680;2023-06-14T12:46:28;99846.00;;;26.06;35.44
25638;BME280;13496;51.040;13.680;2023-06-14T12:51:30;99844.81;;;26.83;33.46
25638;BME280;13496;51.040;13.680;2023-06-14T12:56:32;99848.53;;;26.82;33.67
25638;BME280;13496;51.040;13.680;2023-06-14T13:01:34;99844.28;;;27.14;33.44
25638;BME280;13496;51.040;13.680;2023-06-14T13:06:36;99831.53;;;27.16;33.26
25638;BME280;13496;51.040;13.680;2023-06-14T13:11:37;99834.09;;;27.45;32.59
25638;BME280;13496;51.040;13.680;2023-06-14T13:16:39;99824.97;;;27.07;33.16
25638;BME280;13496;51.040;13.680;2023-06-14T13:21:41;99827.31;;;27.37;33.08
25638;BME280;13496;51.040;13.680;2023-06-14T13:26:43;99829.88;;;26.82;34.10
25638;BME280;13496;51.040;13.680;2023-06-14T13:31:45;99819.69;;;26.62;34.32
25638;BME280;13496;51.040;13.680;2023-06-14T13:36:48;99818.38;;;26.36;34.99
25638;BME280;13496;51.040;13.680;2023-06-14T13:41:50;99828.03;;;26.25;35.04
25638;BME280;13496;51.040;13.680;2023-06-14T13:46:52;99827.25;;;26.13;35.02
25638;BME280;13496;51.040;13.680;2023-06-14T13:51:54;99823.69;;;26.36;34.75
25638;BME280;13496;51.040;13.680;2023-06-14T13:56:56;99825.81;;;26.34;35.12
25638;BME280;13496;51.040;13.680;2023-06-14T14:01:57;99819.56;;;26.28;34.80
25638;BME280;13496;51.040;13.680;2023-06-14T14:06:59;99813.72;;;26.43;34.80
25638;BME280;13496;51.040;13.680;2023-06-14T14:12:01;99800.69;;;26.41;34.83
25638;BME280;13496;51.040;13.680;2023-06-14T14:17:04;99806.13;;;26.35;34.77
25638;BME280;13496;51.040;13.680;2023-06-14T14:22:06;99807.31;;;26.27;35.11
25638;BME280;13496;51.040;13.680;2023-06-14T14:27:07;99810.38;;;26.19;35.10
25638;BME280;13496;51.040;13.680;2023-06-14T14:32:09;99806.53;;;26.26;35.43
25638;BME280;13496;51.040;13.680;2023-06-14T14:37:15;99805.59;;;26.21;35.22
25638;BME280;13496;51.040;13.680;2023-06-14T14:42:17;99800.72;;;26.29;35.18
25638;BME280;13496;51.040;13.680;2023-06-14T14:47:19;99794.31;;;26.42;34.21
25638;BME280;13496;51.040;13.680;2023-06-14T14:52:21;99794.03;;;26.56;34.91
25638;BME280;13496;51.040;13.680;2023-06-14T14:57:23;99796.88;;;26.37;34.94
25638;BME280;13496;51.040;13.680;2023-06-14T15:02:24;99799.75;;;26.36;34.78
25638;BME280;13496;51.040;13.680;2023-06-14T15:07:27;99792.38;;;26.38;34.97
25638;BME280;13496;51.040;13.680;2023-06-14T15:12:29;99782.50;;;26.50;34.71
25638;BME280;13496;51.040;13.680;2023-06-14T15:17:31;99787.75;;;26.62;34.77
25638;BME280;13496;51.040;13.680;2023-06-14T15:22:32;99796.59;;;26.50;34.48
25638;BME280;13496;51.040;13.680;2023-06-14T15:27:34;99788.06;;;26.48;34.42
25638;BME280;13496;51.040;13.680;2023-06-14T15:32:36;99793.72;;;26.52;34.11
25638;BME280;13496;51.040;13.680;2023-06-14T15:37:38;99780.81;;;26.61;34.04
25638;BME280;13496;51.040;13.680;2023-06-14T15:42:39;99785.34;;;26.60;34.19
25638;BME280;13496;51.040;13.680;2023-06-14T15:47:41;99791.28;;;26.50;34.12
25638;BME280;13496;51.040;13.680;2023-06-14T15:52:43;99794.31;;;26.42;34.38
25638;BME280;13496;51.040;13.680;2023-06-14T15:57:44;99796.53;;;26.34;34.77
25638;BME280;13496;51.040;13.680;2023-06-14T16:02:46;99791.38;;;26.44;34.78
25638;BME280;13496;51.040;13.680;2023-06-14T16:07:49;99783.53;;;26.49;34.45
25638;BME280;13496;51.040;13.680;2023-06-14T16:12:51;99781.22;;;26.52;34.20
25638;BME280;13496;51.040;13.680;2023-06-14T16:17:52;99779.59;;;26.51;33.91
25638;BME280;13496;51.040;13.680;2023-06-14T16:22:55;99784.34;;;26.49;33.48
25638;BME280;13496;51.040;13.680;2023-06-14T16:27:57;99776.09;;;26.51;33.64
25638;BME280;13496;51.040;13.680;2023-06-14T16:32:59;99782.88;;;26.59;34.22
25638;BME280;13496;51.040;13.680;2023-06-14T16:38:01;99778.72;;;26.63;33.63
25638;BME280;13496;51.040;13.680;2023-06-14T16:43:02;99779.69;;;26.57;33.17
25638;BME280;13496;51.040;13.680;2023-06-14T16:48:04;99786.06;;;26.44;33.29
25638;BME280;13496;51.040;13.680;2023-06-14T16:53:06;99785.41;;;26.48;32.81
25638;BME280;13496;51.040;13.680;2023-06-14T16:58:08;99799.97;;;26.46;33.06
25638;BME280;13496;51.040;13.680;2023-06-14T17:03:09;99795.66;;;26.57;33.10
25638;BME280;13496;51.040;13.680;2023-06-14T17:08:11;99798.06;;;26.58;33.68
25638;BME280;13496;51.040;13.680;2023-06-14T17:13:13;99805.34;;;26.63;33.35
25638;BME280;13496;51.040;13.680;2023-06-14T17:18:14;99798.31;;;26.57;31.68
25638;BME280;13496;51.040;13.680;2023-06-14T17:23:16;99807.53;;;26.37;32.43
25638;BME280;13496;51.040;13.680;2023-06-14T17:28:18;99807.88;;;26.29;32.52
25638;BME280;13496;51.040;13.680;2023-06-14T17:33:19;99804.84;;;26.09;32.98
25638;BME280;13496;51.040;13.680;2023-06-14T17:38:21;99804.81;;;25.80;32.21
25638;BME280;13496;51.040;13.680;2023-06-14T17:43:23;99812.44;;;25.65;32.24
25638;BME280;13496;51.040;13.680;2023-06-14T17:48:24;99811.97;;;25.56;32.17
25638;BME280;13496;51.040;13.680;2023-06-14T17:53:26;99811.88;;;25.27;32.39
25638;BME280;13496;51.040;13.680;2023-06-14T17:58:28;99819.72;;;25.10;32.51
25638;BME280;13496;51.040;13.680;2023-06-14T18:03:30;99834.78;;;24.98;32.62
25638;BME280;13496;51.040;13.680;2023-06-14T18:08:31;99819.53;;;24.94;32.74
25638;BME280;13496;51.040;13.680;2023-06-14T18:13:33;99832.19;;;24.80;32.71
25638;BME280;13496;51.040;13.680;2023-06-14T18:18:35;99838.88;;;24.71;32.66
25638;BME280;13496;51.040;13.680;2023-06-14T18:23:37;99839.78;;;24.65;33.01
25638;BME280;13496;51.040;13.680;2023-06-14T18:28:39;99840.75;;;24.40;33.33
25638;BME280;13496;51.040;13.680;2023-06-14T18:33:41;99851.19;;;24.17;33.81
25638;BME280;13496;51.040;13.680;2023-06-14T18:38:43;99847.38;;;23.94;34.14
25638;BME280;13496;51.040;13.680;2023-06-14T18:43:45;99849.44;;;23.92;34.24
25638;BME280;13496;51.040;13.680;2023-06-14T18:48:47;99853.34;;;23.89;34.37
25638;BME280;13496;51.040;13.680;2023-06-14T18:53:49;99852.97;;;24.04;34.23
25638;BME280;13496;51.040;13.680;2023-06-14T18:58:50;99857.84;;;23.64;35.02
25638;BME280;13496;51.040;13.680;2023-06-14T19:03:52;99857.28;;;23.37;35.53
25638;BME280;13496;51.040;13.680;2023-06-14T19:08:54;99858.41;;;23.48;35.54
25638;BME280;13496;51.040;13.680;2023-06-14T19:13:55;99865.84;;;23.57;35.58
25638;BME280;13496;51.040;13.680;2023-06-14T19:18:57;99865.03;;;23.32;35.65
25638;BME280;13496;51.040;13.680;2023-06-14T19:23:59;99860.53;;;23.14;35.96
25638;BME280;13496;51.040;13.680;2023-06-14T19:29:01;99869.59;;;23.25;36.04
25638;BME280;13496;51.040;13.680;2023-06-14T19:34:03;99873.22;;;22.67;36.86
25638;BME280;13496;51.040;13.680;2023-06-14T19:39:05;99881.84;;;22.49;36.84
25638;BME280;13496;51.040;13.680;2023-06-14T19:44:07;99889.47;;;22.26;37.55
25638;BME280;13496;51.040;13.680;2023-06-14T19:49:09;99888.06;;;22.03;38.29
25638;BME280;13496;51.040;13.680;2023-06-14T19:54:10;99891.34;;;21.92;38.80
25638;BME280;13496;51.040;13.680;2023-06-14T19:59:12;99901.72;;;21.87;38.83
25638;BME280;13496;51.040;13.680;2023-06-14T20:04:14;99903.19;;;21.69;39.48
25638;BME280;13496;51.040;13.680;2023-06-14T20:09:16;99900.91;;;21.93;39.40
25638;BME280;13496;51.040;13.680;2023-06-14T20:14:18;99904.34;;;21.93;39.31
25638;BME280;13496;51.040;13.680;2023-06-14T20:19:20;99913.31;;;21.86;39.57
25638;BME280;13496;51.040;13.680;2023-06-14T20:24:21;99926.09;;;21.75;39.58
25638;BME280;13496;51.040;13.680;2023-06-14T20:29:23;99930.59;;;21.55;40.21
25638;BME280;13496;51.040;13.680;2023-06-14T20:34:25;99928.88;;;21.01;41.51
25638;BME280;13496;51.040;13.680;2023-06-14T20:39:26;99934.25;;;20.66;42.22
25638;BME280;13496;51.040;13.680;2023-06-14T20:44:28;99926.13;;;20.68;42.18
25638;BME280;13496;51.040;13.680;2023-06-14T20:49:30;99920.56;;;21.11;41.78
25638;BME280;13496;51.040;13.680;2023-06-14T20:54:35;99918.31;;;21.01;41.51
25638;BME280;13496;51.040;13.680;2023-06-14T20:59:40;99921.38;;;21.11;41.67
25638;BME280;13496;51.040;13.680;2023-06-14T21:04:43;99922.09;;;20.78;42.11
25638;BME280;13496;51.040;13.680;2023-06-14T21:09:44;99920.97;;;21.08;41.67
25638;BME280;13496;51.040;13.680;2023-06-14T21:14:46;99920.69;;;20.83;41.29
25638;BME280;13496;51.040;13.680;2023-06-14T21:19:48;99930.31;;;20.14;43.09
25638;BME280;13496;51.040;13.680;2023-06-14T21:24:50;99926.47;;;20.17;43.17
25638;BME280;13496;51.040;13.680;2023-06-14T21:29:51;99932.63;;;19.96;43.21
25638;BME280;13496;51.040;13.680;2023-06-14T21:34:55;99932.38;;;19.91;43.53
25638;BME280;13496;51.040;13.680;2023-06-14T21:39:56;99924.25;;;20.14;43.25
25638;BME280;13496;51.040;13.680;2023-06-14T21:44:58;99924.19;;;20.07;43.59
25638;BME280;13496;51.040;13.680;2023-06-14T21:50:00;99926.19;;;20.05;43.41
25638;BME280;13496;51.040;13.680;2023-06-14T21:55:02;99919.88;;;19.50;44.75
25638;BME280;13496;51.040;13.680;2023-06-14T22:00:04;99924.13;;;19.72;44.07
25638;BME280;13496;51.040;13.680;2023-06-14T22:05:08;99920.22;;;20.24;43.16
25638;BME280;13496;51.040;13.680;2023-06-14T22:10:10;99915.69;;;20.12;43.07
25638;BME280;13496;51.040;13.680;2023-06-14T22:15:11;99922.00;;;19.82;43.98
25638;BME280;13496;51.040;13.680;2023-06-14T22:20:14;99932.03;;;19.08;45.43
25638;BME280;13496;51.040;13.680;2023-06-14T22:25:17;99926.22;;;19.77;43.95
25638;BME280;13496;51.040;13.680;2023-06-14T22:30:18;99930.91;;;19.39;44.84
25638;BME280;13496;51.040;13.680;2023-06-14T22:35:20;99930.34;;;19.00;45.35
25638;BME280;13496;51.040;13.680;2023-06-14T22:40:22;99931.28;;;19.57;44.29
25638;BME280;13496;51.040;13.680;2023-06-14T22:45:24;99919.66;;;19.45;44.51
25638;BME280;13496;51.040;13.680;2023-06-14T22:50:25;99922.47;;;19.43;44.23
25638;BME280;13496;51.040;13.680;2023-06-14T22:55:27;99927.97;;;19.27;44.33
25638;BME280;13496;51.040;13.680;2023-06-14T23:00:29;99925.78;;;19.30;44.54
25638;BME280;13496;51.040;13.680;2023-06-14T23:05:30;99920.09;;;19.27;44.55
25638;BME280;13496;51.040;13.680;2023-06-14T23:10:32;99941.41;;;18.45;46.21
25638;BME280;13496;51.040;13.680;2023-06-14T23:15:34;99938.06;;;18.36;46.53
25638;BME280;13496;51.040;13.680;2023-06-14T23:20:36;99938.41;;;18.77;45.69
25638;BME280;13496;51.040;13.680;2023-06-14T23:25:38;99932.50;;;18.46;45.64
25638;BME280;13496;51.040;13.680;2023-06-14T23:30:42;99935.00;;;18.69;45.62
25638;BME280;13496;51.040;13.680;2023-06-14T23:35:46;99933.38;;;18.68;45.93
25638;BME280;13496;51.040;13.680;2023-06-14T23:40:48;99929.94;;;18.82;45.23
25638;BME280;13496;51.040;13.680;2023-06-14T23:45:51;99936.94;;;19.11;44.56
25638;BME280;13496;51.040;13.680;2023-06-14T23:50:55;99935.78;;;18.48;45.87
25638;BME280;13496;51.040;13.680;2023-06-14T23:55:56;99932.69;;;18.14;46.70
